Time;durP1;ratioP1;P1;durP2;ratioP2;P2;SDS_P1;SDS_P2;PMS_P1;PMS_P2;Temp;Humidity;BMP_temperature;BMP_pressure;BME280_temperature;BME280_humidity;BME280_pressure;Samples;Min_cycle;Max_cycle;Signal;HPM_P1;HPM_P2
2022/05/29 00:01:46;;;;;;;8.98;2.42;;;10.40;99.90;;;;;;4994384;28;20026;-53
2022/05/29 00:04:12;;;;;;;10.98;2.67;;;10.40;99.90;;;;;;4994003;28;20046;-53
2022/05/29 00:06:40;;;;;;;9.68;3.28;;;10.40;99.90;;;;;;4994205;28;20033;-53
2022/05/29 00:09:08;;;;;;;11.25;2.60;;;10.30;99.90;;;;;;4994162;28;20109;-54
2022/05/29 00:11:34;;;;;;;10.40;3.50;;;10.30;99.90;;;;;;4994277;28;20023;-53
2022/05/29 00:14:00;;;;;;;10.30;2.65;;;10.30;99.90;;;;;;4993960;28;20054;-53
2022/05/29 00:16:29;;;;;;;7.18;2.45;;;10.30;99.90;;;;;;4994038;28;20387;-54
2022/05/29 00:18:56;;;;;;;10.18;2.55;;;10.30;99.90;;;;;;4993547;28;20023;-54
2022/05/29 00:21:23;;;;;;;10.80;2.55;;;10.30;99.90;;;;;;4994607;28;20034;-53
2022/05/29 00:23:49;;;;;;;8.75;2.67;;;10.40;99.90;;;;;;4994283;28;20018;-53
2022/05/29 00:26:18;;;;;;;11.93;3.35;;;10.50;99.90;;;;;;4993486;28;20066;-53
2022/05/29 00:28:45;;;;;;;6.80;2.67;;;10.50;99.90;;;;;;4993534;28;20039;-53
2022/05/29 00:31:11;;;;;;;9.43;2.70;;;10.30;99.90;;;;;;4993967;28;20041;-53
2022/05/29 00:33:36;;;;;;;8.63;2.45;;;10.40;99.90;;;;;;4993445;28;20499;-53
2022/05/29 00:36:02;;;;;;;12.60;2.95;;;10.40;99.90;;;;;;4992114;28;20053;-53
2022/05/29 00:38:29;;;;;;;10.95;2.45;;;10.40;99.90;;;;;;4993102;28;20029;-53
2022/05/29 00:41:17;;;;;;;10.95;2.83;;;10.60;99.90;;;;;;4993350;28;20027;-54
2022/05/29 00:44:15;;;;;;;9.38;2.58;;;10.60;99.90;;;;;;4991842;28;20027;-53
2022/05/29 00:46:59;;;;;;;10.00;2.60;;;10.70;99.90;;;;;;5002659;28;20042;-53
2022/05/29 00:49:29;;;;;;;10.75;2.88;;;10.70;99.90;;;;;;5007278;28;20030;-53
2022/05/29 00:51:58;;;;;;;8.73;2.63;;;10.60;99.90;;;;;;4993049;28;20022;-53
2022/05/29 00:54:24;;;;;;;8.45;3.00;;;10.60;99.90;;;;;;4991464;28;20065;-54
2022/05/29 00:56:52;;;;;;;10.60;3.03;;;10.60;99.90;;;;;;4993332;28;20462;-53
2022/05/29 00:59:29;;;;;;;9.93;2.88;;;10.60;99.90;;;;;;4993292;28;20502;-53
2022/05/29 01:01:56;;;;;;;9.07;2.78;;;10.50;99.90;;;;;;4993183;28;20582;-53
2022/05/29 01:04:22;;;;;;;13.95;3.15;;;10.60;99.90;;;;;;4993050;28;20101;-54
2022/05/29 01:06:49;;;;;;;12.32;2.72;;;10.50;99.90;;;;;;4993029;28;20041;-53
2022/05/29 01:09:16;;;;;;;10.52;2.55;;;10.50;99.90;;;;;;4993048;28;20034;-54
2022/05/29 01:12:20;;;;;;;14.73;2.95;;;10.50;99.90;;;;;;4992811;28;20023;-53
2022/05/29 01:15:14;;;;;;;7.40;2.78;;;10.40;99.90;;;;;;4992665;28;20316;-55
2022/05/29 01:18:01;;;;;;;5.07;2.83;;;10.30;99.90;;;;;;4992763;28;20022;-54
2022/05/29 01:20:51;;;;;;;8.85;2.88;;;10.30;99.90;;;;;;4993293;28;20109;-53
2022/05/29 01:23:31;;;;;;;9.80;2.60;;;10.20;99.90;;;;;;4994882;28;20038;-53
2022/05/29 01:26:07;;;;;;;9.32;3.00;;;10.20;99.90;;;;;;4992422;28;20018;-53
2022/05/29 01:28:57;;;;;;;9.95;3.28;;;10.10;99.90;;;;;;4992708;28;20022;-53
2022/05/29 01:31:22;;;;;;;10.25;3.55;;;10.10;99.90;;;;;;4992115;28;20246;-53
2022/05/29 01:34:04;;;;;;;5.85;2.78;;;10.10;99.90;;;;;;4992732;28;20391;-53
2022/05/29 01:36:42;;;;;;;13.18;3.42;;;10.00;99.90;;;;;;4992888;28;20030;-53
2022/05/29 01:39:43;;;;;;;11.32;3.33;;;10.10;99.90;;;;;;4992497;28;20450;-53
2022/05/29 01:42:23;;;;;;;12.20;2.90;;;10.00;99.90;;;;;;4992818;28;20023;-53
2022/05/29 01:45:15;;;;;;;10.82;3.40;;;10.00;99.90;;;;;;5007644;28;20411;-53
2022/05/29 01:47:55;;;;;;;11.50;3.38;;;9.90;99.90;;;;;;4992044;28;20037;-53
2022/05/29 01:50:50;;;;;;;10.63;3.60;;;9.80;99.90;;;;;;4992510;28;20041;-53
2022/05/29 01:53:26;;;;;;;8.40;3.45;;;9.80;99.90;;;;;;4993696;28;20038;-54
2022/05/29 01:55:55;;;;;;;9.30;3.60;;;9.80;99.90;;;;;;4992409;28;20114;-54
2022/05/29 01:58:28;;;;;;;10.00;3.70;;;9.70;99.90;;;;;;4992133;28;20058;-54
2022/05/29 02:00:57;;;;;;;6.72;3.45;;;9.70;99.90;;;;;;4992591;28;20026;-54
2022/05/29 02:03:31;;;;;;;12.10;4.10;;;9.70;99.90;;;;;;4992522;28;20085;-54
2022/05/29 02:06:00;;;;;;;13.80;4.35;;;9.80;99.90;;;;;;4991773;28;20503;-54
2022/05/29 02:09:03;;;;;;;9.82;4.22;;;9.90;99.90;;;;;;4992058;28;20030;-57
2022/05/29 02:11:31;;;;;;;14.98;4.82;;;9.90;99.90;;;;;;5001237;28;20093;-54
2022/05/29 02:14:02;;;;;;;7.90;4.80;;;9.90;99.90;;;;;;4992025;28;20039;-54
2022/05/29 02:16:56;;;;;;;16.70;4.70;;;9.80;99.90;;;;;;4992323;28;20037;-54
2022/05/29 02:19:53;;;;;;;12.80;4.25;;;9.80;99.90;;;;;;4992526;28;20053;-54
2022/05/29 02:22:27;;;;;;;16.05;4.55;;;9.70;99.90;;;;;;4990448;28;20138;-55
2022/05/29 02:25:04;;;;;;;12.43;4.20;;;9.50;99.90;;;;;;4992224;28;20033;-53
2022/05/29 02:27:43;;;;;;;14.90;5.72;;;9.60;99.90;;;;;;4991725;28;20026;-54
2022/05/29 02:30:08;;;;;;;8.45;3.95;;;9.60;99.90;;;;;;4990866;28;20117;-54
2022/05/29 02:32:48;;;;;;;12.48;4.50;;;9.60;99.90;;;;;;4992282;28;20066;-54
2022/05/29 02:35:19;;;;;;;9.95;3.95;;;9.60;99.90;;;;;;4992132;28;20026;-54
2022/05/29 02:37:49;;;;;;;9.65;4.55;;;9.80;99.90;;;;;;4992103;28;20038;-54
2022/05/29 02:41:14;;;;;;;9.70;4.45;;;9.90;99.90;;;;;;4991841;28;20026;-54
2022/05/29 02:43:47;;;;;;;10.52;4.00;;;9.90;99.90;;;;;;5012076;28;20153;-54
2022/05/29 02:46:26;;;;;;;10.10;4.03;;;10.00;99.90;;;;;;5012898;28;20474;-54
2022/05/29 02:49:03;;;;;;;12.35;4.20;;;10.00;99.90;;;;;;4999211;28;20037;-54
2022/05/29 02:51:37;;;;;;;8.38;3.78;;;10.00;99.90;;;;;;4995413;28;20499;-54
2022/05/29 02:54:03;;;;;;;11.55;3.53;;;10.10;99.90;;;;;;4995257;28;20029;-54
2022/05/29 02:56:29;;;;;;;12.88;4.00;;;10.10;99.90;;;;;;4995051;28;20494;-54
2022/05/29 02:58:58;;;;;;;6.57;3.35;;;10.10;99.90;;;;;;4995241;28;20025;-55
2022/05/29 03:01:46;;;;;;;9.98;4.28;;;10.10;99.90;;;;;;4995238;28;20029;-54
2022/05/29 03:04:28;;;;;;;9.80;3.78;;;10.20;99.90;;;;;;4995064;28;20077;-53
2022/05/29 03:07:03;;;;;;;11.52;3.83;;;10.30;99.90;;;;;;4994852;28;20563;-53
2022/05/29 03:10:14;;;;;;;9.75;3.55;;;10.30;99.90;;;;;;4995186;28;20037;-53
2022/05/29 03:13:08;;;;;;;9.57;3.40;;;10.20;99.90;;;;;;5012142;28;20030;-54
2022/05/29 03:16:09;;;;;;;6.03;3.28;;;10.20;99.90;;;;;;5011849;28;20054;-54
2022/05/29 03:18:40;;;;;;;7.60;3.40;;;10.10;99.90;;;;;;4986613;28;20050;-53
2022/05/29 03:21:27;;;;;;;12.50;2.95;;;10.10;99.90;;;;;;4994885;28;20023;-52
2022/05/29 03:24:11;;;;;;;10.75;3.85;;;10.10;99.90;;;;;;4994772;28;20110;-53
2022/05/29 03:26:55;;;;;;;11.35;3.28;;;10.20;99.90;;;;;;4994737;28;20054;-53
2022/05/29 03:29:55;;;;;;;10.68;3.15;;;10.20;99.90;;;;;;5009899;28;20030;-53
2022/05/29 03:32:21;;;;;;;9.15;3.33;;;10.10;99.90;;;;;;4994803;28;20035;-53
2022/05/29 03:34:47;;;;;;;8.90;3.33;;;10.10;99.90;;;;;;4994649;28;20498;-54
2022/05/29 03:37:13;;;;;;;12.20;3.83;;;10.10;99.90;;;;;;4994606;28;20023;-53
2022/05/29 03:39:38;;;;;;;10.05;3.65;;;10.20;99.90;;;;;;4994987;28;20022;-53
2022/05/29 03:42:05;;;;;;;8.80;3.40;;;10.20;99.90;;;;;;4995179;28;20114;-53
2022/05/29 03:44:31;;;;;;;6.55;3.10;;;10.20;99.90;;;;;;4994627;28;20030;-54
2022/05/29 03:46:56;;;;;;;7.88;3.70;;;10.20;99.90;;;;;;4994296;28;20034;-53
2022/05/29 03:49:23;;;;;;;10.18;3.30;;;10.20;99.90;;;;;;4994409;28;20018;-53
2022/05/29 03:51:49;;;;;;;12.52;3.95;;;10.30;99.90;;;;;;4994654;28;20475;-53
2022/05/29 03:54:16;;;;;;;10.85;3.20;;;10.40;99.90;;;;;;4993557;28;20027;-53
2022/05/29 03:56:41;;;;;;;6.53;3.10;;;10.30;99.90;;;;;;4994483;28;20049;-53
2022/05/29 03:59:07;;;;;;;9.70;3.47;;;10.40;99.90;;;;;;4993985;28;20376;-54
2022/05/29 04:01:34;;;;;;;8.43;3.38;;;10.40;99.90;;;;;;4994419;28;20034;-53
2022/05/29 04:04:00;;;;;;;8.13;3.45;;;10.30;99.90;;;;;;4994229;28;20029;-54
2022/05/29 04:06:27;;;;;;;11.15;3.95;;;10.50;99.90;;;;;;4992753;28;20116;-53
2022/05/29 04:14:24;;;;;;;9.25;3.63;;;10.50;99.90;;;;;;4993461;28;20088;-53
2022/05/29 04:16:50;;;;;;;8.35;3.78;;;10.30;99.90;;;;;;4993879;28;20054;-54
2022/05/29 04:19:16;;;;;;;10.65;3.88;;;10.20;99.90;;;;;;4993840;28;20459;-53
2022/05/29 04:21:42;;;;;;;11.48;4.18;;;10.00;99.90;;;;;;4993709;28;20101;-53
2022/05/29 04:24:08;;;;;;;11.38;4.50;;;10.00;99.90;;;;;;4993518;28;20022;-53
2022/05/29 04:26:34;;;;;;;14.38;4.53;;;10.10;99.90;;;;;;4993367;28;20030;-53
2022/05/29 04:29:01;;;;;;;12.18;4.05;;;10.40;99.90;;;;;;4993862;28;20403;-52
2022/05/29 04:31:27;;;;;;;8.38;3.88;;;10.30;99.90;;;;;;4993462;28;20121;-53
2022/05/29 04:33:53;;;;;;;6.57;3.35;;;10.30;99.90;;;;;;4993696;28;20084;-53
2022/05/29 04:36:18;;;;;;;8.60;3.40;;;10.40;99.90;;;;;;4993046;28;20030;-54
2022/05/29 04:38:44;;;;;;;9.35;3.92;;;10.40;99.90;;;;;;4993440;28;20442;-53
2022/05/29 04:41:10;;;;;;;13.75;3.50;;;10.40;99.90;;;;;;4993090;28;20023;-53
2022/05/29 04:43:36;;;;;;;10.98;3.38;;;10.50;99.90;;;;;;4993482;28;20030;-54
2022/05/29 04:46:02;;;;;;;11.77;3.30;;;10.50;99.90;;;;;;4993471;28;20479;-53
2022/05/29 04:48:28;;;;;;;10.10;4.00;;;10.50;99.90;;;;;;4993509;28;20029;-53
2022/05/29 04:51:02;;;;;;;10.85;4.28;;;10.60;99.90;;;;;;4993477;28;20027;-53
2022/05/29 04:53:29;;;;;;;12.88;4.35;;;10.70;99.90;;;;;;4993870;28;20535;-53
2022/05/29 04:55:57;;;;;;;14.13;3.80;;;10.90;99.90;;;;;;5008223;28;20026;-54
2022/05/29 04:58:24;;;;;;;14.07;3.78;;;11.00;99.90;;;;;;4993047;28;20053;-54
2022/05/29 05:00:59;;;;;;;8.27;3.30;;;10.80;99.90;;;;;;4993531;28;20018;-53
2022/05/29 05:03:24;;;;;;;9.48;2.95;;;10.70;99.90;;;;;;4992972;28;20023;-53
2022/05/29 05:05:50;;;;;;;12.70;3.03;;;10.70;99.90;;;;;;4992914;28;20014;-53
2022/05/29 05:08:16;;;;;;;10.10;3.03;;;10.80;99.90;;;;;;4992612;28;20394;-53
2022/05/29 05:10:42;;;;;;;6.80;2.28;;;10.80;99.90;;;;;;4993113;28;20033;-53
2022/05/29 05:13:08;;;;;;;8.60;2.90;;;10.80;99.90;;;;;;4992015;28;20089;-53
2022/05/29 05:15:35;;;;;;;8.95;2.83;;;11.00;99.90;;;;;;4992613;28;20462;-54
2022/05/29 05:18:02;;;;;;;6.70;2.40;;;11.00;99.90;;;;;;4992711;28;20554;-53
2022/05/29 05:20:28;;;;;;;6.13;2.60;;;11.00;99.90;;;;;;4993121;28;20101;-53
2022/05/29 05:22:54;;;;;;;8.15;3.08;;;11.10;99.90;;;;;;4993277;28;20018;-53
2022/05/29 05:25:20;;;;;;;5.85;2.95;;;11.20;99.90;;;;;;4992717;28;20388;-52
2022/05/29 05:27:45;;;;;;;4.90;2.20;;;11.30;99.90;;;;;;4992495;28;20063;-53
2022/05/29 05:30:11;;;;;;;8.25;2.55;;;11.30;99.90;;;;;;4991444;28;20034;-53
2022/05/29 05:32:37;;;;;;;8.57;2.30;;;11.20;99.90;;;;;;4991109;28;20030;-53
2022/05/29 05:35:06;;;;;;;6.25;2.80;;;11.40;99.90;;;;;;4992231;28;20037;-53
2022/05/29 05:37:36;;;;;;;5.18;2.28;;;11.40;99.90;;;;;;4992135;28;20068;-54
2022/05/29 05:40:05;;;;;;;4.97;2.72;;;11.50;99.90;;;;;;4992439;28;20026;-53
2022/05/29 05:42:31;;;;;;;5.28;2.80;;;11.40;99.90;;;;;;4991639;28;20442;-54
2022/05/29 05:44:56;;;;;;;6.30;2.50;;;11.30;99.90;;;;;;4992502;28;20027;-54
2022/05/29 05:47:22;;;;;;;8.32;2.92;;;11.40;99.90;;;;;;4992457;28;20080;-55
2022/05/29 05:49:49;;;;;;;5.43;2.42;;;11.50;99.90;;;;;;4992294;28;20040;-55
2022/05/29 05:52:16;;;;;;;8.00;2.70;;;11.60;99.90;;;;;;4992210;28;20096;-55
2022/05/29 05:54:42;;;;;;;7.70;2.53;;;11.60;99.90;;;;;;4992537;28;20028;-55
2022/05/29 05:57:07;;;;;;;8.35;2.85;;;11.50;99.90;;;;;;4992146;28;20339;-55
2022/05/29 05:59:38;;;;;;;8.02;2.72;;;11.50;99.90;;;;;;4992623;28;20063;-54
2022/05/29 06:02:09;;;;;;;10.30;2.80;;;11.50;99.90;;;;;;4992424;28;20069;-54
2022/05/29 06:04:36;;;;;;;7.07;2.75;;;11.50;99.90;;;;;;5007401;28;20081;-55
2022/05/29 06:07:01;;;;;;;10.02;3.33;;;11.60;99.90;;;;;;4990533;28;20034;-52
2022/05/29 06:09:29;;;;;;;9.45;3.10;;;11.70;99.90;;;;;;5006887;28;20034;-52
2022/05/29 06:11:55;;;;;;;9.85;3.40;;;11.90;99.90;;;;;;4991895;28;20131;-53
2022/05/29 06:14:21;;;;;;;9.30;3.25;;;12.10;99.90;;;;;;4991404;28;20078;-53
2022/05/29 06:16:47;;;;;;;7.43;2.72;;;12.10;99.90;;;;;;4992067;28;20376;-52
2022/05/29 06:19:12;;;;;;;10.25;3.03;;;12.00;99.90;;;;;;4995603;28;20042;-52
2022/05/29 06:21:38;;;;;;;10.63;3.60;;;12.00;99.90;;;;;;4995486;28;20057;-52
2022/05/29 06:24:04;;;;;;;7.65;2.20;;;12.10;99.90;;;;;;4995446;28;20519;-53
2022/05/29 06:26:30;;;;;;;13.27;3.08;;;12.20;99.90;;;;;;4993958;28;20026;-52
2022/05/29 06:28:56;;;;;;;11.70;2.42;;;12.20;99.90;;;;;;4995263;28;20030;-52
2022/05/29 06:31:21;;;;;;;6.80;2.83;;;12.20;99.90;;;;;;4995521;28;20521;-52
2022/05/29 06:33:47;;;;;;;6.65;2.58;;;12.30;99.90;;;;;;4994992;28;20030;-52
2022/05/29 06:36:16;;;;;;;9.18;2.60;;;12.40;99.90;;;;;;4995020;28;20030;-52
2022/05/29 06:38:42;;;;;;;7.40;2.40;;;12.60;99.90;;;;;;4995118;28;20033;-52
2022/05/29 06:41:11;;;;;;;8.88;2.53;;;12.70;99.90;;;;;;4995289;28;20077;-52
2022/05/29 06:43:37;;;;;;;7.82;1.60;;;13.40;99.90;;;;;;4995175;28;20028;-53
2022/05/29 06:46:04;;;;;;;11.73;2.35;;;14.80;99.90;;;;;;4994965;28;20467;-52
2022/05/29 06:48:32;;;;;;;7.25;1.90;;;16.50;99.90;;;;;;4994498;28;20038;-52
2022/05/29 06:51:06;;;;;;;6.57;1.92;;;18.10;99.90;;;;;;4994854;28;20503;-52
2022/05/29 06:53:32;;;;;;;6.70;2.20;;;19.50;99.90;;;;;;4994545;28;20045;-52
2022/05/29 06:55:58;;;;;;;7.47;1.52;;;20.20;96.60;;;;;;4994396;28;20026;-53
2022/05/29 06:58:24;;;;;;;8.13;1.88;;;21.00;93.90;;;;;;4994460;28;20027;-53
2022/05/29 07:09:04;;;;;;;5.38;1.30;;;18.90;93.60;;;;;;4994558;28;20553;-53
2022/05/29 07:11:35;;;;;;;7.75;1.52;;;17.80;94.50;;;;;;4994466;28;20053;-53
2022/05/29 07:14:02;;;;;;;5.18;1.60;;;17.90;95.40;;;;;;4994038;28;20057;-53
2022/05/29 07:16:28;;;;;;;5.65;1.70;;;18.70;94.10;;;;;;5009028;28;20472;-53
2022/05/29 07:18:54;;;;;;;11.23;1.63;;;19.00;93.10;;;;;;4994045;28;20036;-53
2022/05/29 07:21:21;;;;;;;5.40;1.65;;;18.50;94.20;;;;;;4994241;28;20057;-53
2022/05/29 07:23:47;;;;;;;6.65;1.60;;;18.40;94.10;;;;;;4994530;28;20026;-53
2022/05/29 07:26:12;;;;;;;6.93;1.50;;;18.40;94.50;;;;;;4992397;28;20109;-53
2022/05/29 07:28:38;;;;;;;6.65;1.17;;;18.80;94.00;;;;;;4992609;28;20066;-53
2022/05/29 07:31:04;;;;;;;5.43;1.30;;;18.30;94.20;;;;;;4994240;28;20383;-53
2022/05/29 07:33:30;;;;;;;2.80;1.25;;;17.20;95.30;;;;;;4993970;28;20022;-53
2022/05/29 07:35:56;;;;;;;4.43;1.40;;;16.20;97.80;;;;;;4993899;28;20027;-53
2022/05/29 07:38:22;;;;;;;9.02;1.83;;;16.20;98.20;;;;;;4993585;28;20342;-53
2022/05/29 07:40:48;;;;;;;4.40;1.35;;;16.00;98.60;;;;;;4993736;28;20022;-53
2022/05/29 07:43:22;;;;;;;5.53;1.60;;;15.60;99.20;;;;;;4994117;28;20080;-53
2022/05/29 07:45:47;;;;;;;6.35;1.42;;;15.20;99.30;;;;;;4994174;28;20054;-53
2022/05/29 07:48:14;;;;;;;9.65;1.48;;;15.30;99.60;;;;;;4993826;28;20058;-53
2022/05/29 07:50:41;;;;;;;4.20;1.08;;;15.40;99.60;;;;;;4993578;28;20026;-53
2022/05/29 07:53:06;;;;;;;6.63;1.63;;;15.10;99.80;;;;;;4993733;28;20034;-52
2022/05/29 07:55:32;;;;;;;5.93;1.30;;;14.90;99.90;;;;;;4993436;28;20037;-53
2022/05/29 07:57:58;;;;;;;5.47;1.58;;;14.70;99.90;;;;;;4993800;28;20026;-53
2022/05/29 08:00:24;;;;;;;3.60;1.10;;;14.80;99.90;;;;;;4993884;28;20034;-53
2022/05/29 08:02:49;;;;;;;4.13;1.20;;;14.40;99.90;;;;;;4993754;28;20026;-52
2022/05/29 08:05:18;;;;;;;8.70;1.48;;;14.60;99.90;;;;;;4993166;28;20019;-53
2022/05/29 08:07:45;;;;;;;4.00;1.40;;;14.80;99.90;;;;;;4993283;28;20031;-53
2022/05/29 08:10:12;;;;;;;6.78;1.35;;;14.80;99.90;;;;;;4991867;28;20030;-53
2022/05/29 08:12:39;;;;;;;6.88;1.60;;;14.80;99.90;;;;;;4993225;28;20031;-53
2022/05/29 08:15:05;;;;;;;3.97;1.35;;;14.80;99.90;;;;;;4993084;28;20054;-53
2022/05/29 08:17:32;;;;;;;4.75;1.08;;;14.90;99.90;;;;;;4993113;28;20030;-53
2022/05/29 08:19:57;;;;;;;4.18;1.27;;;15.30;99.90;;;;;;4993223;28;20034;-53
2022/05/29 08:22:24;;;;;;;5.72;1.40;;;15.80;99.90;;;;;;4993096;28;20482;-53
2022/05/29 08:33:27;;;;;;;3.08;0.93;;;17.10;99.90;;;;;;4992876;28;20097;-53
2022/05/29 08:35:57;;;;;;;4.43;1.00;;;17.70;99.80;;;;;;4993047;28;20062;-53
2022/05/29 08:38:23;;;;;;;3.88;0.93;;;18.50;98.70;;;;;;4992884;28;20204;-53
2022/05/29 08:40:53;;;;;;;3.38;1.20;;;18.70;97.70;;;;;;4990910;28;20029;-53
2022/05/29 08:43:38;;;;;;;4.13;0.90;;;18.70;97.60;;;;;;4992471;28;20022;-53
2022/05/29 08:46:18;;;;;;;3.15;1.00;;;18.80;97.60;;;;;;4992565;28;20026;-53
2022/05/29 08:48:45;;;;;;;2.45;0.90;;;19.30;96.20;;;;;;4993110;28;20054;-54
2022/05/29 08:51:34;;;;;;;3.10;1.00;;;18.90;96.50;;;;;;4992368;28;20018;-53
2022/05/29 08:54:14;;;;;;;2.92;1.20;;;19.30;95.80;;;;;;4992524;28;20026;-54
2022/05/29 08:57:07;;;;;;;3.40;0.77;;;19.30;95.90;;;;;;4992702;28;20066;-54
2022/05/29 08:59:50;;;;;;;1.55;0.55;;;20.30;94.00;;;;;;4991096;28;20103;-54
2022/05/29 09:02:28;;;;;;;2.10;0.65;;;20.40;93.20;;;;;;4992021;28;20026;-54
2022/05/29 09:05:00;;;;;;;2.97;0.90;;;20.00;91.80;;;;;;4992546;28;20031;-54
2022/05/29 09:07:29;;;;;;;2.70;0.80;;;19.40;91.70;;;;;;4992106;28;20029;-54
2022/05/29 09:10:01;;;;;;;2.53;0.80;;;18.90;91.50;;;;;;4992292;28;20061;-53
2022/05/29 09:12:41;;;;;;;2.35;0.80;;;18.50;92.10;;;;;;4991981;28;20026;-54
2022/05/29 09:15:20;;;;;;;1.98;0.70;;;18.00;93.00;;;;;;4992086;28;20050;-53
2022/05/29 09:17:55;;;;;;;2.88;0.70;;;18.10;93.30;;;;;;5006974;28;20037;-53
2022/05/29 09:20:42;;;;;;;1.13;0.65;;;19.20;92.30;;;;;;4992335;28;20050;-54
2022/05/29 09:23:13;;;;;;;4.75;0.68;;;19.90;90.20;;;;;;4992412;28;20033;-54
2022/05/29 09:25:42;;;;;;;1.25;0.70;;;20.50;90.90;;;;;;4992179;28;20030;-54
2022/05/29 09:28:24;;;;;;;0.95;0.52;;;20.00;90.50;;;;;;4991742;28;20026;-54
2022/05/29 09:30:53;;;;;;;1.90;0.68;;;19.40;91.80;;;;;;4991890;28;20050;-54
2022/05/29 09:33:24;;;;;;;2.67;0.50;;;19.70;92.10;;;;;;4991812;28;20023;-54
2022/05/29 09:35:53;;;;;;;1.35;0.32;;;19.40;92.40;;;;;;4990456;28;20033;-54
2022/05/29 09:38:27;;;;;;;0.90;0.35;;;19.30;93.10;;;;;;4991797;28;20056;-54
2022/05/29 09:40:56;;;;;;;0.93;0.40;;;20.00;91.10;;;;;;4992486;28;20029;-54
2022/05/29 09:43:26;;;;;;;1.10;0.50;;;20.40;90.30;;;;;;4991578;28;20015;-54
2022/05/29 09:45:52;;;;;;;1.95;0.70;;;21.70;89.70;;;;;;4991655;28;20109;-54
2022/05/29 09:51:31;;;;;;;4.13;0.60;;;22.20;84.00;;;;;;4991731;28;20065;-52
2022/05/29 09:54:01;;;;;;;1.33;0.40;;;22.60;84.00;;;;;;4991870;28;20034;-52
2022/05/29 09:56:33;;;;;;;1.70;0.52;;;22.40;81.10;;;;;;4991453;28;20031;-52
2022/05/29 09:59:01;;;;;;;2.03;0.88;;;21.70;83.00;;;;;;4991798;28;20488;-52
2022/05/29 10:01:40;;;;;;;2.67;0.57;;;22.70;82.20;;;;;;4991477;28;20118;-52
2022/05/29 10:04:22;;;;;;;2.80;0.65;;;23.30;79.10;;;;;;4991657;28;20014;-52
2022/05/29 10:06:53;;;;;;;1.75;0.80;;;21.70;82.10;;;;;;4992178;28;20109;-52
2022/05/29 10:09:25;;;;;;;3.05;0.73;;;20.40;86.00;;;;;;4991325;28;20351;-54
2022/05/29 10:11:59;;;;;;;1.83;0.87;;;19.60;89.30;;;;;;4991743;28;20106;-54
2022/05/29 10:14:30;;;;;;;2.00;0.80;;;19.60;90.10;;;;;;4991077;28;20427;-54
2022/05/29 10:16:56;;;;;;;3.05;0.90;;;19.70;88.90;;;;;;4991134;28;20046;-54
2022/05/29 10:19:40;;;;;;;2.05;0.90;;;19.80;88.70;;;;;;4991052;28;20041;-54
2022/05/29 10:22:14;;;;;;;1.90;0.93;;;19.70;88.00;;;;;;4991037;28;20383;-55
2022/05/29 10:24:40;;;;;;;1.65;0.90;;;18.90;90.20;;;;;;4991896;28;20054;-54
2022/05/29 10:27:34;;;;;;;3.40;0.98;;;18.30;91.00;;;;;;4991066;28;20022;-54
2022/05/29 10:30:12;;;;;;;1.60;0.82;;;17.70;94.10;;;;;;4993032;28;20043;-54
2022/05/29 10:32:41;;;;;;;3.60;1.00;;;17.20;96.50;;;;;;4991081;28;20082;-54
2022/05/29 10:35:22;;;;;;;1.60;0.75;;;17.00;96.80;;;;;;4991312;28;20117;-54
2022/05/29 10:37:48;;;;;;;1.30;0.80;;;17.10;96.40;;;;;;4990943;28;20097;-54
2022/05/29 10:40:14;;;;;;;4.75;1.00;;;17.10;96.50;;;;;;4990957;28;20044;-54
2022/05/29 10:42:45;;;;;;;1.05;0.50;;;17.70;96.10;;;;;;4990935;28;20468;-54
2022/05/29 10:45:43;;;;;;;2.90;0.52;;;18.20;93.80;;;;;;4990959;28;20031;-54
2022/05/29 10:48:45;;;;;;;1.10;0.50;;;18.90;91.70;;;;;;4994197;28;20391;-54
2022/05/29 10:51:35;;;;;;;1.33;0.52;;;19.70;90.30;;;;;;4991265;28;20089;-54
2022/05/29 10:54:09;;;;;;;2.17;1.00;;;19.70;90.40;;;;;;4991061;28;20471;-54
2022/05/29 10:57:12;;;;;;;3.05;1.15;;;18.70;93.60;;;;;;4990681;28;20037;-54
2022/05/29 10:59:58;;;;;;;1.77;1.15;;;17.80;96.60;;;;;;4990793;28;20062;-54
2022/05/29 11:05:56;;;;;;;2.90;1.17;;;16.40;98.40;;;;;;4994406;28;20041;-53
2022/05/29 11:08:35;;;;;;;1.83;1.10;;;16.40;98.60;;;;;;4994406;28;20050;-53
2022/05/29 11:11:39;;;;;;;2.00;1.02;;;16.60;98.50;;;;;;4994549;28;20026;-54
2022/05/29 11:14:08;;;;;;;2.85;0.90;;;16.80;98.30;;;;;;4993946;28;20050;-54
2022/05/29 11:17:08;;;;;;;2.08;0.90;;;17.20;98.30;;;;;;4994202;28;20034;-54
2022/05/29 11:19:51;;;;;;;3.45;1.20;;;17.50;97.20;;;;;;4993959;28;20041;-54
2022/05/29 11:22:22;;;;;;;2.80;1.33;;;17.50;96.90;;;;;;4993808;28;20330;-54
2022/05/29 11:25:06;;;;;;;3.58;1.45;;;17.30;97.80;;;;;;4993997;28;20036;-53
2022/05/29 11:28:05;;;;;;;3.85;1.00;;;17.20;97.20;;;;;;4993619;28;20110;-53
2022/05/29 11:30:53;;;;;;;3.15;0.80;;;17.40;99.90;;;;;;4994814;28;20045;-53
2022/05/29 11:33:27;;;;;;;3.38;0.88;;;16.90;99.90;;;;;;4993700;28;20029;-53
2022/05/29 11:36:14;;;;;;;3.45;1.08;;;16.20;99.90;;;;;;4993032;28;20113;-53
2022/05/29 11:39:18;;;;;;;1.98;0.73;;;16.00;99.90;;;;;;4990139;28;20042;-53
2022/05/29 11:42:02;;;;;;;3.65;1.20;;;15.20;99.90;;;;;;4992397;28;20073;-53
2022/05/29 11:45:02;;;;;;;6.88;1.50;;;15.20;99.90;;;;;;4992946;28;20022;-53
2022/05/29 11:53:24;;;;;;;3.45;1.25;;;15.90;99.90;;;;;;4993878;28;20049;-53
2022/05/29 11:55:54;;;;;;;2.17;1.00;;;15.70;99.90;;;;;;5008391;28;20037;-54
2022/05/29 11:58:32;;;;;;;5.45;1.20;;;15.50;99.90;;;;;;4994022;28;20030;-53
2022/05/29 12:01:16;;;;;;;34.05;5.03;;;15.50;99.90;;;;;;4993842;28;20053;-53
2022/05/29 12:03:50;;;;;;;16.13;4.05;;;15.50;99.90;;;;;;4993748;28;20250;-66
2022/05/29 12:06:21;;;;;;;6.68;2.13;;;15.20;99.90;;;;;;4993597;28;20475;-62
2022/05/29 12:09:06;;;;;;;5.35;2.00;;;14.30;99.90;;;;;;4993412;28;20031;-59
2022/05/29 12:11:31;;;;;;;6.13;2.28;;;13.80;99.90;;;;;;4994065;28;20547;-58
2022/05/29 12:14:10;;;;;;;4.07;1.98;;;13.70;99.90;;;;;;4992934;28;20125;-59
2022/05/29 12:16:42;;;;;;;5.53;2.22;;;13.50;99.90;;;;;;4992849;28;20364;-60
2022/05/29 12:19:19;;;;;;;5.10;1.97;;;13.50;99.90;;;;;;4991970;28;20029;-60
2022/05/29 12:21:51;;;;;;;2.70;1.65;;;13.40;99.90;;;;;;4993807;28;20349;-59
2022/05/29 12:24:26;;;;;;;3.15;1.58;;;13.10;99.90;;;;;;4993226;28;20034;-58
2022/05/29 12:27:15;;;;;;;5.50;2.80;;;12.70;99.90;;;;;;4993179;28;20034;-57
2022/05/29 12:30:15;;;;;;;3.63;2.13;;;12.50;99.90;;;;;;4992065;28;20042;-56
2022/05/29 12:32:40;;;;;;;7.35;2.25;;;12.40;99.90;;;;;;4993100;28;20538;-55
2022/05/29 12:35:20;;;;;;;15.35;7.28;;;12.50;99.90;;;;;;4993079;28;20346;-55
2022/05/29 12:38:01;;;;;;;7.55;3.80;;;12.70;99.90;;;;;;4992660;28;20031;-55
2022/05/29 12:40:51;;;;;;;3.92;1.77;;;13.00;99.90;;;;;;4991794;28;20026;-54
2022/05/29 12:43:48;;;;;;;3.30;1.90;;;13.60;99.90;;;;;;4993165;28;20430;-54
2022/05/29 12:46:55;;;;;;;3.17;1.60;;;14.00;99.90;;;;;;4992778;28;20113;-54
2022/05/29 12:49:32;;;;;;;5.20;2.30;;;14.40;99.90;;;;;;4992578;28;20030;-55
2022/05/29 12:52:14;;;;;;;3.17;1.42;;;15.10;99.90;;;;;;4992930;28;20082;-54
2022/05/29 12:54:51;;;;;;;3.28;1.27;;;15.60;99.90;;;;;;4992678;28;20066;-54
2022/05/29 12:57:41;;;;;;;4.97;1.60;;;15.90;99.90;;;;;;4992705;28;20551;-53
2022/05/29 13:00:22;;;;;;;2.17;1.40;;;15.30;99.90;;;;;;4992962;28;20114;-54
2022/05/29 13:03:15;;;;;;;3.17;1.25;;;15.50;99.90;;;;;;4992860;28;20361;-54
2022/05/29 13:06:04;;;;;;;2.38;1.20;;;16.30;99.90;;;;;;4992434;28;20049;-54
2022/05/29 13:08:32;;;;;;;3.45;1.15;;;16.60;99.90;;;;;;4992355;28;20037;-53
2022/05/29 13:10:59;;;;;;;1.70;0.80;;;17.20;99.90;;;;;;4992477;28;20395;-54
2022/05/29 13:13:43;;;;;;;2.80;1.10;;;17.50;99.90;;;;;;4992155;28;20112;-54
2022/05/29 13:16:31;;;;;;;3.03;1.25;;;17.20;99.90;;;;;;4990782;28;20518;-54
2022/05/29 13:19:17;;;;;;;2.05;0.52;;;16.80;99.90;;;;;;4992260;28;20022;-55
2022/05/29 13:22:02;;;;;;;1.48;0.60;;;15.80;99.90;;;;;;4992779;28;20034;-54
2022/05/29 13:24:30;;;;;;;2.63;0.57;;;15.30;99.90;;;;;;4992384;28;20101;-54
2022/05/29 13:27:12;;;;;;;7.72;1.00;;;15.10;99.90;;;;;;4992108;28;20022;-53
2022/05/29 13:29:54;;;;;;;4.85;0.75;;;15.20;99.90;;;;;;4992378;28;20073;-54
2022/05/29 13:32:29;;;;;;;3.15;0.80;;;15.50;99.90;;;;;;4992306;28;20031;-53
2022/05/29 13:35:03;;;;;;;2.53;0.75;;;15.60;99.90;;;;;;4990805;28;20109;-53
2022/05/29 13:37:32;;;;;;;5.75;0.90;;;15.80;99.90;;;;;;4991860;28;20108;-53
2022/05/29 13:40:16;;;;;;;2.55;0.70;;;16.10;99.90;;;;;;4991774;28;20434;-53
2022/05/29 13:42:53;;;;;;;1.08;0.40;;;16.20;99.90;;;;;;4992026;28;20034;-53
2022/05/29 13:45:19;;;;;;;0.60;0.30;;;16.00;99.90;;;;;;4992042;28;20073;-54
2022/05/29 13:48:12;;;;;;;1.13;0.30;;;16.90;99.90;;;;;;4991608;28;20034;-54
2022/05/29 13:50:41;;;;;;;1.75;0.47;;;17.90;99.90;;;;;;4992392;28;20034;-54
2022/05/29 13:53:20;;;;;;;3.85;0.40;;;18.30;99.90;;;;;;4991539;28;20030;-54
2022/05/29 13:55:51;;;;;;;0.70;0.30;;;17.50;99.90;;;;;;4991729;28;20031;-54